Time;durP1;ratioP1;P1;durP2;ratioP2;P2;SDS_P1;SDS_P2;PMS_P1;PMS_P2;Temp;Humidity;BMP_temperature;BMP_pressure;BME280_temperature;BME280_humidity;BME280_pressure;Samples;Min_cycle;Max_cycle;Signal;HPM_P1;HPM_P2
2021/03/21 00:01:45;;;;;;;9.30;4.03;;;;;;;4.69;58.42;101985.22;5043862;28;20033;-70
2021/03/21 00:04:13;;;;;;;13.70;4.38;;;;;;;4.75;58.30;101990.41;5028463;28;20053;-70
2021/03/21 00:06:39;;;;;;;17.25;5.13;;;;;;;4.54;58.71;101990.34;5044025;28;20051;-69
2021/03/21 00:09:05;;;;;;;12.48;3.75;;;;;;;4.45;59.01;101979.97;5041927;28;20845;-69
2021/03/21 00:11:31;;;;;;;8.80;3.83;;;;;;;3.65;60.70;101984.72;5029927;28;20423;-70
2021/03/21 00:13:56;;;;;;;15.23;3.55;;;;;;;4.79;58.08;101980.94;5038599;28;20029;-71
2021/03/21 00:16:22;;;;;;;12.73;4.25;;;;;;;4.39;59.12;101979.09;5041628;28;20546;-70
2021/03/21 00:18:48;;;;;;;15.20;5.20;;;;;;;4.18;59.77;101979.00;5043795;28;20659;-70
2021/03/21 00:21:14;;;;;;;10.48;3.25;;;;;;;4.66;58.12;101974.84;5045751;28;20033;-70
2021/03/21 00:23:41;;;;;;;19.90;4.00;;;;;;;4.38;58.97;101977.34;5040870;28;20033;-70
2021/03/21 00:26:10;;;;;;;19.45;3.55;;;;;;;4.59;58.55;101962.75;5041724;28;20017;-70
2021/03/21 00:28:37;;;;;;;15.15;4.78;;;;;;;4.52;58.57;101976.53;5028429;28;20087;-70
2021/03/21 00:31:05;;;;;;;13.10;4.22;;;;;;;4.46;58.79;101968.75;5040869;28;20040;-70
2021/03/21 00:33:33;;;;;;;10.48;4.00;;;;;;;3.98;60.48;101959.09;5043192;28;20053;-70
2021/03/21 00:36:00;;;;;;;10.57;4.20;;;;;;;4.55;58.47;101971.38;5042260;28;20033;-69
2021/03/21 00:38:30;;;;;;;11.25;5.40;;;;;;;4.58;58.36;101961.00;5041666;28;20040;-70
2021/03/21 00:40:57;;;;;;;16.60;5.00;;;;;;;4.63;58.13;101959.28;5044531;28;20087;-70
2021/03/21 00:43:23;;;;;;;22.63;5.43;;;;;;;4.74;57.66;101961.91;5043332;28;20032;-70
2021/03/21 00:45:49;;;;;;;15.65;5.45;;;;;;;4.78;57.83;101969.69;5044681;28;20021;-70
2021/03/21 00:48:19;;;;;;;16.77;6.95;;;;;;;4.43;58.56;101943.69;5046198;28;20609;-69
2021/03/21 00:50:45;;;;;;;18.60;5.82;;;;;;;4.83;57.59;101938.59;5026903;28;20044;-69
2021/03/21 00:53:10;;;;;;;15.45;6.75;;;;;;;4.49;58.75;101938.56;5031891;23;20053;-70
2021/03/21 00:55:37;;;;;;;18.48;5.60;;;;;;;4.00;59.93;101934.06;5026981;28;20087;-70
2021/03/21 00:58:03;;;;;;;13.50;5.35;;;;;;;4.59;58.58;101932.53;5025343;28;20125;-71
2021/03/21 01:00:35;;;;;;;22.52;5.13;;;;;;;4.12;60.42;101941.03;5028340;28;20040;-72
2021/03/21 01:03:01;;;;;;;;;;;;;;;4.49;58.67;101937.69;5034177;28;20036;-70
2021/03/21 01:05:30;;;;;;;13.30;4.20;;;;;;;4.28;59.60;101929.00;5045949;28;19913;-70
2021/03/21 01:07:57;;;;;;;7.93;2.80;;;;;;;4.63;58.17;101917.84;5042880;28;20381;-70
2021/03/21 01:10:31;;;;;;;10.93;3.75;;;;;;;4.01;60.60;101922.88;5045549;28;20033;-70
2021/03/21 01:12:59;;;;;;;9.93;2.35;;;;;;;3.69;61.58;101911.50;5044076;28;20029;-70
2021/03/21 01:15:27;;;;;;;5.70;1.83;;;;;;;3.86;61.08;101909.88;5044975;28;20051;-70
2021/03/21 01:17:53;;;;;;;9.68;1.70;;;;;;;4.26;59.81;101906.56;5046978;28;20067;-70
2021/03/21 01:20:22;;;;;;;6.60;1.58;;;;;;;4.32;59.95;101903.97;5041141;28;20047;-70
2021/03/21 01:22:48;;;;;;;10.40;2.22;;;;;;;4.26;59.58;101893.63;5045129;28;20043;-71
2021/03/21 01:25:17;;;;;;;6.65;1.75;;;;;;;3.57;61.68;101900.25;5045988;28;20618;-71
2021/03/21 01:27:43;;;;;;;2.72;1.50;;;;;;;3.93;61.04;101897.84;5043009;28;20025;-70
2021/03/21 01:30:09;;;;;;;7.90;2.42;;;;;;;3.83;61.32;101891.75;5044419;28;20044;-71
2021/03/21 01:32:35;;;;;;;5.80;2.05;;;;;;;3.40;62.80;101896.69;5058111;28;20116;-69
2021/03/21 01:35:00;;;;;;;6.05;2.53;;;;;;;3.67;62.09;101892.53;5040401;28;20108;-69
2021/03/21 01:37:26;;;;;;;8.48;1.60;;;;;;;3.07;63.70;101902.44;5043067;28;20054;-69
2021/03/21 01:39:51;;;;;;;8.13;1.75;;;;;;;3.27;62.89;101889.66;5041916;28;20200;-70
2021/03/21 01:42:17;;;;;;;4.65;1.80;;;;;;;3.45;61.45;101900.19;5043422;28;20048;-70
2021/03/21 01:44:43;;;;;;;4.45;1.15;;;;;;;3.85;60.04;101890.06;5045781;28;20124;-70
2021/03/21 01:47:16;;;;;;;5.07;1.15;;;;;;;3.45;61.28;101895.00;5042978;28;20421;-69
2021/03/21 01:49:44;;;;;;;6.57;1.27;;;;;;;3.59;60.18;101887.34;5042763;28;20123;-70
2021/03/21 01:52:28;;;;;;;5.05;1.02;;;;;;;3.53;60.10;101882.97;5045796;28;20063;-70
2021/03/21 01:54:55;;;;;;;6.75;1.30;;;;;;;3.83;59.33;101881.41;5023519;28;20063;-70
2021/03/21 01:57:20;;;;;;;7.78;1.25;;;;;;;3.51;60.03;101884.69;5045287;28;20299;-71
2021/03/21 01:59:46;;;;;;;3.40;1.35;;;;;;;3.71;59.33;101882.19;5022533;28;20033;-71
2021/03/21 02:02:11;;;;;;;4.25;0.90;;;;;;;3.88;58.31;101884.03;5044563;28;20032;-70
2021/03/21 02:04:37;;;;;;;5.45;1.23;;;;;;;4.14;57.79;101881.50;5044465;28;20029;-70
2021/03/21 02:07:02;;;;;;;7.00;0.93;;;;;;;3.86;57.98;101876.25;5039590;28;20099;-70
2021/03/21 02:09:50;;;;;;;7.40;1.75;;;;;;;3.79;57.99;101877.09;5044814;28;20392;-70
2021/03/21 02:12:38;;;;;;;9.52;1.50;;;;;;;3.37;58.57;101879.44;5045782;28;20054;-71
2021/03/21 02:15:18;;;;;;;5.45;0.70;;;;;;;3.52;58.36;101868.34;5042491;28;20045;-71
2021/03/21 02:17:51;;;;;;;5.43;0.85;;;;;;;4.13;56.68;101864.28;5042966;28;20028;-71
2021/03/21 02:20:41;;;;;;;5.28;1.08;;;;;;;3.64;57.67;101858.91;5041467;28;20037;-71
2021/03/21 02:23:15;;;;;;;4.78;1.17;;;;;;;3.77;57.63;101860.69;5040640;28;20112;-70
2021/03/21 02:26:05;;;;;;;5.45;0.85;;;;;;;3.96;57.27;101861.63;5042337;28;20024;-70
2021/03/21 02:28:51;;;;;;;7.20;1.25;;;;;;;3.93;57.06;101856.44;5026596;28;20120;-70
2021/03/21 02:31:26;;;;;;;5.70;0.85;;;;;;;3.78;57.61;101863.31;5028556;28;20561;-71
2021/03/21 02:33:58;;;;;;;5.82;1.10;;;;;;;3.76;58.20;101864.13;5057300;28;20392;-70
2021/03/21 02:36:33;;;;;;;8.15;0.93;;;;;;;3.73;58.38;101858.94;5024349;28;20120;-70
2021/03/21 02:39:18;;;;;;;2.47;0.50;;;;;;;4.14;57.20;101863.41;5060054;28;20037;-70
2021/03/21 02:41:50;;;;;;;10.95;1.90;;;;;;;3.98;57.74;101850.44;5041860;28;20034;-70
2021/03/21 02:44:22;;;;;;;14.52;1.63;;;;;;;3.83;58.56;101845.22;5044381;28;20499;-70
2021/03/21 02:46:53;;;;;;;6.60;0.98;;;;;;;3.82;58.89;101837.44;5040815;28;20466;-70
2021/03/21 02:49:22;;;;;;;15.77;1.95;;;;;;;3.90;58.99;101839.19;5044487;28;20032;-70
2021/03/21 02:51:54;;;;;;;10.55;0.90;;;;;;;3.37;60.56;101857.91;5043571;28;20458;-69
2021/03/21 02:54:27;;;;;;;11.40;1.17;;;;;;;3.69;60.13;101854.63;5047686;28;20035;-70
2021/03/21 02:57:00;;;;;;;11.88;1.45;;;;;;;3.25;61.33;101858.69;5043600;28;20037;-70
2021/03/21 02:59:30;;;;;;;9.85;1.35;;;;;;;3.40;61.02;101850.16;5047268;28;20021;-70
2021/03/21 03:02:06;;;;;;;9.93;1.48;;;;;;;3.69;60.35;101857.22;5052879;28;20116;-71
2021/03/21 03:04:40;;;;;;;11.23;1.23;;;;;;;3.70;60.27;101861.53;5051540;28;20032;-70
2021/03/21 03:07:14;;;;;;;14.13;1.35;;;;;;;3.70;60.46;101851.19;5048506;28;20044;-70
2021/03/21 03:09:48;;;;;;;11.48;2.08;;;;;;;3.08;61.92;101837.88;5046667;28;20032;-70
2021/03/21 03:12:18;;;;;;;17.55;1.67;;;;;;;3.89;59.91;101840.03;5046748;28;20733;-72
2021/03/21 03:14:47;;;;;;;16.85;1.92;;;;;;;4.14;58.80;101838.41;5044733;28;20033;-69
2021/03/21 03:17:21;;;;;;;24.52;2.67;;;;;;;4.01;59.26;101834.06;5049609;28;20548;-70
2021/03/21 03:20:22;;;;;;;11.95;2.13;;;;;;;4.15;58.43;101823.75;5026532;28;20727;-70
2021/03/21 03:23:02;;;;;;;22.02;1.75;;;;;;;3.71;59.55;101840.84;4968350;28;20039;-71
2021/03/21 03:25:29;;;;;;;16.38;1.75;;;;;;;3.56;60.04;101841.66;5041026;28;20033;-72
2021/03/21 03:28:23;;;;;;;19.52;1.27;;;;;;;3.52;60.00;101845.06;5045414;28;20166;-70
2021/03/21 03:31:36;;;;;;;29.45;2.50;;;;;;;3.75;59.48;101846.91;5042764;28;20033;-70
2021/03/21 03:34:02;;;;;;;10.38;1.13;;;;;;;4.16;57.99;101834.09;5031242;28;20049;-70
2021/03/21 03:36:28;;;;;;;12.18;1.60;;;;;;;4.34;57.00;101830.69;5043075;28;20033;-70
2021/03/21 03:38:54;;;;;;;15.27;2.67;;;;;;;3.70;58.12;101827.91;5031007;28;20447;-70
2021/03/21 03:41:42;;;;;;;15.05;1.02;;;;;;;4.36;56.83;101839.31;5046043;28;20120;-70
2021/03/21 03:44:17;;;;;;;18.77;1.45;;;;;;;3.66;58.87;101839.09;5046385;28;20420;-70
2021/03/21 03:46:53;;;;;;;11.25;1.13;;;;;;;3.78;58.63;101831.38;5044385;28;20028;-71
2021/03/21 03:50:11;;;;;;;13.25;1.23;;;;;;;3.50;59.11;101820.94;5048389;28;20202;-71
2021/03/21 03:53:02;;;;;;;15.07;1.40;;;;;;;3.83;57.05;101824.53;4988047;28;20034;-69
2021/03/21 03:55:35;;;;;;;18.25;1.20;;;;;;;3.87;56.10;101826.22;5043704;28;20712;-72
2021/03/21 03:58:30;;;;;;;21.83;2.10;;;;;;;3.16;58.26;101830.19;5046262;28;20029;-72
2021/03/21 04:01:10;;;;;;;12.88;1.20;;;;;;;3.47;57.58;101820.94;5030544;28;20110;-70
2021/03/21 04:03:51;;;;;;;6.30;1.67;;;;;;;3.83;57.37;101808.13;5046794;28;20032;-70
2021/03/21 04:06:42;;;;;;;19.42;1.20;;;;;;;3.79;57.71;101802.09;5046413;28;20651;-70
2021/03/21 04:09:08;;;;;;;23.35;1.77;;;;;;;3.70;58.53;101805.50;5047354;28;20029;-70
2021/03/21 04:11:46;;;;;;;18.90;3.03;;;;;;;3.79;58.33;101792.59;5047107;28;20051;-72
2021/03/21 04:14:17;;;;;;;20.83;1.95;;;;;;;3.44;59.30;101814.88;5046688;28;20032;-70
2021/03/21 04:16:55;;;;;;;15.63;2.45;;;;;;;3.68;58.66;101820.16;5042769;28;20029;-69
2021/03/21 04:19:27;;;;;;;21.20;1.08;;;;;;;3.77;58.20;101819.31;5026914;28;20392;-69
2021/03/21 04:21:58;;;;;;;16.52;3.40;;;;;;;3.73;58.03;101823.59;5045235;28;20045;-70
2021/03/21 04:24:37;;;;;;;22.38;2.67;;;;;;;3.49;58.25;101819.22;5047438;28;20040;-71
2021/03/21 04:27:17;;;;;;;24.70;2.45;;;;;;;3.64;56.99;101822.72;5045584;28;20069;-69
2021/03/21 04:29:54;;;;;;;22.38;2.78;;;;;;;3.84;56.07;101825.38;5044195;28;20495;-70
2021/03/21 04:32:24;;;;;;;18.08;1.92;;;;;;;3.67;56.05;101822.72;5048364;28;20713;-70
2021/03/21 04:34:54;;;;;;;14.70;2.10;;;;;;;3.57;55.14;101832.16;5029239;28;20040;-70
2021/03/21 04:37:22;;;;;;;13.13;1.60;;;;;;;3.47;52.14;101820.94;5063423;28;20025;-70
2021/03/21 04:39:52;;;;;;;25.42;2.30;;;;;;;3.14;51.75;101824.16;5027042;28;20439;-70
2021/03/21 04:42:24;;;;;;;11.85;1.17;;;;;;;3.12;51.55;101836.19;5043779;28;20043;-70
2021/03/21 04:44:58;;;;;;;12.65;1.35;;;;;;;3.47;50.88;101826.09;5040071;28;20032;-70
2021/03/21 04:47:29;;;;;;;19.38;2.75;;;;;;;3.16;51.66;101837.94;5043969;28;20025;-70
2021/03/21 04:49:56;;;;;;;34.97;3.30;;;;;;;3.01;52.32;101825.78;5041962;28;20037;-70
2021/03/21 04:52:40;;;;;;;21.00;1.58;;;;;;;3.63;51.26;101831.31;5044188;28;20036;-70
2021/03/21 04:55:12;;;;;;;24.08;1.92;;;;;;;3.10;52.56;101828.44;5047142;28;20041;-70
2021/03/21 04:57:46;;;;;;;19.25;2.70;;;;;;;3.36;52.20;101822.59;5044094;28;20078;-70
2021/03/21 05:00:27;;;;;;;20.00;1.75;;;;;;;3.32;51.82;101826.03;5027571;28;20051;-70
2021/03/21 05:02:57;;;;;;;23.00;2.88;;;;;;;2.84;53.07;101817.06;5057857;28;20396;-69
2021/03/21 05:05:46;;;;;;;28.48;2.13;;;;;;;2.72;53.48;101802.34;5043556;28;20568;-70
2021/03/21 05:08:27;;;;;;;32.88;3.60;;;;;;;2.96;52.68;101806.81;5043563;28;20028;-70
2021/03/21 05:11:00;;;;;;;19.92;2.35;;;;;;;2.61;53.60;101814.31;5041164;28;20045;-71
2021/03/21 05:13:55;;;;;;;28.13;3.13;;;;;;;2.28;53.86;101811.41;5038934;28;20079;-70
2021/03/21 05:16:34;;;;;;;26.73;2.50;;;;;;;2.72;52.26;101823.00;5042760;28;20420;-70
2021/03/21 05:19:15;;;;;;;27.90;2.88;;;;;;;2.22;53.25;101824.28;5043220;28;20040;-70
2021/03/21 05:21:55;;;;;;;19.90;2.27;;;;;;;2.16;53.06;101831.09;5045232;28;20499;-70
2021/03/21 05:24:31;;;;;;;24.73;2.00;;;;;;;2.90;51.27;101837.75;5029858;28;20072;-70
2021/03/21 05:27:20;;;;;;;24.83;2.95;;;;;;;2.56;51.86;101837.50;5054572;28;20063;-70
2021/03/21 05:30:27;;;;;;;22.92;2.70;;;;;;;2.70;51.61;101840.19;5044396;28;20040;-70
2021/03/21 05:32:53;;;;;;;25.15;3.83;;;;;;;2.69;51.56;101849.66;5037942;28;20041;-70
2021/03/21 05:35:24;;;;;;;22.05;2.70;;;;;;;2.28;52.67;101863.00;5044702;28;20033;-71
2021/03/21 05:38:12;;;;;;;19.50;1.88;;;;;;;2.35;52.34;101859.66;5042548;28;20271;-70
2021/03/21 05:41:24;;;;;;;16.23;1.60;;;;;;;2.72;51.44;101875.47;5019312;28;20038;-70
2021/03/21 05:44:09;;;;;;;;;;;;;;;2.46;52.07;101864.06;5057522;28;20132;-70
2021/03/21 05:46:55;;;;;;;27.77;4.10;;;;;;;2.88;50.87;101868.72;5041261;28;19966;-70
2021/03/21 05:49:45;;;;;;;26.42;3.25;;;;;;;2.77;51.33;101862.63;5046227;28;20067;-71
2021/03/21 05:52:42;;;;;;;27.30;3.40;;;;;;;2.48;51.62;101868.38;5044167;28;20532;-70
2021/03/21 05:55:45;;;;;;;16.27;2.33;;;;;;;2.26;51.86;101866.44;5046448;28;20171;-70
2021/03/21 05:58:26;;;;;;;16.17;3.03;;;;;;;2.08;53.06;101875.69;5041865;28;20075;-70
2021/03/21 06:01:20;;;;;;;15.82;2.58;;;;;;;2.58;51.10;101861.59;5027220;28;20087;-70
2021/03/21 06:04:21;;;;;;;24.25;2.58;;;;;;;2.89;50.41;101872.16;5045187;28;20036;-70
2021/03/21 06:07:11;;;;;;;11.93;2.55;;;;;;;2.43;51.21;101885.53;5027511;28;20183;-70
2021/03/21 06:10:10;;;;;;;21.63;3.28;;;;;;;2.79;50.30;101891.03;5041198;28;20116;-70
2021/03/21 06:12:49;;;;;;;29.30;3.58;;;;;;;2.72;50.60;101875.47;5042670;28;20098;-69
2021/03/21 06:15:26;;;;;;;27.70;3.67;;;;;;;2.63;50.97;101885.72;5028894;28;20052;-70
2021/03/21 06:18:22;;;;;;;20.48;3.15;;;;;;;2.55;51.83;101892.53;5039377;28;20041;-69
2021/03/21 06:21:14;;;;;;;28.30;3.38;;;;;;;2.95;50.39;101901.50;5043616;28;20047;-71
2021/03/21 06:23:56;;;;;;;;;;;;;;;3.10;50.42;101890.44;5042494;28;20024;-70
2021/03/21 06:26:44;;;;;;;19.50;3.70;;;;;;;2.89;51.16;101903.16;5040186;28;20658;-70
2021/03/21 06:29:15;;;;;;;26.90;2.20;;;;;;;3.09;50.67;101911.06;5045294;28;20036;-70
2021/03/21 06:32:02;;;;;;;36.65;3.55;;;;;;;2.65;51.44;101915.00;5044944;28;20033;-70
2021/03/21 06:34:36;;;;;;;22.65;2.70;;;;;;;2.67;51.72;101938.25;5028533;28;20095;-70
2021/03/21 06:37:44;;;;;;;20.13;3.75;;;;;;;2.62;52.01;101912.38;5049390;28;20037;-70
2021/03/21 06:40:37;;;;;;;31.67;3.80;;;;;;;3.11;50.83;101920.59;5019209;28;20048;-70
2021/03/21 06:43:27;;;;;;;20.30;2.83;;;;;;;2.69;51.88;101923.63;5031994;28;20112;-70
2021/03/21 06:46:20;;;;;;;21.40;3.63;;;;;;;3.01;51.37;101923.94;5047490;28;20032;-70
2021/03/21 06:48:45;;;;;;;22.38;4.45;;;;;;;3.36;50.73;101920.81;5046148;28;20044;-71
2021/03/21 06:51:21;;;;;;;33.88;3.50;;;;;;;3.51;50.17;101927.78;5048429;28;20045;-70
2021/03/21 06:54:20;;;;;;;27.42;2.90;;;;;;;3.11;51.29;101933.50;5046104;28;20036;-70
2021/03/21 06:57:20;;;;;;;32.35;4.22;;;;;;;3.79;50.06;101952.09;5029704;28;20041;-70
2021/03/21 07:00:16;;;;;;;33.25;3.90;;;;;;;3.00;51.42;101957.50;5028626;28;20043;-70
2021/03/21 07:03:00;;;;;;;41.50;4.10;;;;;;;3.66;50.32;101965.78;5043883;28;20223;-70
2021/03/21 07:06:20;;;;;;;23.40;2.83;;;;;;;3.25;50.73;101964.63;5045553;28;20029;-70
2021/03/21 07:09:33;;;;;;;37.15;4.60;;;;;;;3.19;51.23;101949.91;4955029;28;20521;-70
2021/03/21 07:12:07;;;;;;;32.60;3.67;;;;;;;3.66;50.35;101950.28;5002459;28;20033;-70
2021/03/21 07:14:59;;;;;;;39.92;4.97;;;;;;;3.78;49.83;101958.97;5047618;28;20040;-70
2021/03/21 07:18:02;;;;;;;36.85;5.03;;;;;;;3.84;49.43;101976.25;5044164;28;20037;-70
2021/03/21 07:20:47;;;;;;;17.38;3.47;;;;;;;3.49;50.48;101971.72;5042848;28;20033;-70
2021/03/21 07:23:31;;;;;;;34.58;3.40;;;;;;;3.88;49.57;101974.56;5026960;28;20037;-70
2021/03/21 07:26:27;;;;;;;35.22;4.00;;;;;;;4.30;48.80;101970.44;5044064;28;20063;-70
2021/03/21 07:29:03;;;;;;;36.10;3.65;;;;;;;4.28;48.56;101962.66;5028516;28;20033;-70
2021/03/21 07:32:09;;;;;;;27.65;4.63;;;;;;;4.29;48.55;101951.44;5048714;28;20029;-70
2021/03/21 07:35:28;;;;;;;30.88;5.10;;;;;;;4.10;48.32;101947.94;5035611;28;20538;-70
2021/03/21 07:38:22;;;;;;;41.70;5.82;;;;;;;4.33;48.60;101971.28;4973211;28;20042;-70
2021/03/21 07:40:57;;;;;;;26.45;4.10;;;;;;;4.14;48.54;101966.91;5041340;28;20263;-70
2021/03/21 07:43:39;;;;;;;32.83;2.88;;;;;;;3.72;49.55;101971.88;5046853;28;20037;-70
2021/03/21 07:46:29;;;;;;;35.15;3.30;;;;;;;4.24;48.59;101958.31;5046192;28;20509;-70
2021/03/21 07:49:07;;;;;;;31.67;3.78;;;;;;;4.24;48.08;101937.63;5045444;28;20039;-70
2021/03/21 07:51:56;;;;;;;31.50;5.07;;;;;;;4.19;48.25;101937.59;5070563;28;20040;-70
2021/03/21 07:54:38;;;;;;;32.47;4.10;;;;;;;4.00;48.08;101952.16;5043703;28;20391;-70
2021/03/21 07:57:13;;;;;;;;;;;;;;;4.77;46.56;101956.75;5043838;28;20047;-70
2021/03/21 07:59:41;;;;;;;20.70;3.35;;;;;;;4.67;47.25;101966.22;5042219;28;20387;-70
2021/03/21 08:02:17;;;;;;;25.02;2.80;;;;;;;4.07;48.12;101988.44;5043161;28;20025;-70
2021/03/21 08:04:49;;;;;;;24.60;4.75;;;;;;;4.49;47.31;101994.66;5044191;28;20068;-70
2021/03/21 08:07:28;;;;;;;23.25;3.60;;;;;;;4.52;47.21;101992.94;5043010;28;20671;-70
2021/03/21 08:09:53;;;;;;;36.20;5.32;;;;;;;4.99;46.37;101996.53;5044899;28;20033;-70
2021/03/21 08:12:19;;;;;;;37.10;4.22;;;;;;;4.34;47.61;101998.94;5044198;28;20122;-70
2021/03/21 08:15:02;;;;;;;26.50;3.50;;;;;;;4.57;47.29;101980.88;5042242;28;20033;-70
2021/03/21 08:17:43;;;;;;;26.08;3.15;;;;;;;5.03;46.16;101990.47;5045716;28;20097;-70
2021/03/21 08:20:29;;;;;;;39.77;5.47;;;;;;;4.92;46.44;101981.81;5043309;28;20040;-71
2021/03/21 08:23:26;;;;;;;26.88;4.82;;;;;;;5.08;46.05;101974.94;5028081;28;20037;-70
2021/03/21 08:25:55;;;;;;;35.28;4.75;;;;;;;4.95;46.71;101971.47;5024046;28;20120;-70
2021/03/21 08:28:23;;;;;;;39.70;4.72;;;;;;;4.87;47.06;101997.34;5029468;28;20061;-70
2021/03/21 08:30:59;;;;;;;37.40;3.78;;;;;;;5.11;46.18;102006.91;5027170;28;20036;-70
2021/03/21 08:33:29;;;;;;;28.88;3.90;;;;;;;5.26;45.62;102000.88;5027470;28;20033;-70
2021/03/21 08:36:13;;;;;;;27.30;4.65;;;;;;;4.83;46.49;102001.66;5043208;28;20116;-70
2021/03/21 08:38:49;;;;;;;26.70;4.57;;;;;;;5.40;45.50;101995.69;5043447;28;20036;-70
2021/03/21 08:41:15;;;;;;;19.25;3.17;;;;;;;5.01;46.22;101987.91;5038108;28;20037;-70
2021/03/21 08:43:41;;;;;;;53.33;4.85;;;;;;;4.91;45.95;102001.69;5041649;28;20040;-70
2021/03/21 08:46:16;;;;;;;34.10;5.00;;;;;;;4.96;45.96;102005.16;5043101;28;20258;-70
2021/03/21 08:48:44;;;;;;;29.27;4.28;;;;;;;5.40;45.13;102000.88;5043333;28;20021;-70
2021/03/21 08:51:13;;;;;;;22.63;2.75;;;;;;;5.38;44.64;102007.78;5048857;28;20037;-70
2021/03/21 08:54:12;;;;;;;33.67;5.40;;;;;;;5.45;44.83;102012.09;5047000;28;20044;-70
2021/03/21 08:56:41;;;;;;;16.35;2.65;;;;;;;4.95;45.78;102037.13;5040806;28;20159;-70
2021/03/21 08:59:06;;;;;;;25.63;3.22;;;;;;;4.61;46.36;102031.81;5054399;28;20052;-70
2021/03/21 09:01:33;;;;;;;29.65;4.35;;;;;;;5.49;44.46;102018.16;5024108;28;20045;-72
2021/03/21 09:04:13;;;;;;;32.33;4.00;;;;;;;4.96;45.68;102019.84;5044809;28;20033;-70
2021/03/21 09:06:42;;;;;;;25.08;3.65;;;;;;;4.68;45.72;102035.28;5038844;28;20055;-70
2021/03/21 09:09:33;;;;;;;24.70;4.70;;;;;;;5.10;45.22;102033.69;5042630;28;20068;-70
2021/03/21 09:12:32;;;;;;;28.53;4.67;;;;;;;5.73;43.92;102027.66;5035611;28;20033;-71
2021/03/21 09:15:16;;;;;;;25.60;4.18;;;;;;;5.72;43.63;102031.09;5038222;28;20067;-70
2021/03/21 09:17:42;;;;;;;30.35;3.22;;;;;;;5.77;43.53;102029.34;5041532;28;20706;-70
2021/03/21 09:20:15;;;;;;;29.15;3.15;;;;;;;5.60;43.08;102037.16;5041673;28;20068;-72
2021/03/21 09:22:42;;;;;;;24.38;3.88;;;;;;;5.96;43.18;102035.38;5037111;28;20045;-70
2021/03/21 09:25:19;;;;;;;31.30;3.53;;;;;;;5.51;44.04;102038.03;5038758;28;20128;-70
2021/03/21 09:27:46;;;;;;;36.42;4.07;;;;;;;5.67;43.08;102042.34;5038374;28;20147;-72
2021/03/21 09:30:19;;;;;;;31.85;5.22;;;;;;;5.32;43.43;102050.13;5043189;28;20036;-71
2021/03/21 09:32:51;;;;;;;19.63;4.18;;;;;;;5.94;42.04;102040.56;5034211;28;20028;-71
2021/03/21 09:35:38;;;;;;;23.85;3.13;;;;;;;6.41;42.51;102047.38;5040230;28;20043;-71
2021/03/21 09:38:35;;;;;;;35.42;4.75;;;;;;;5.88;42.47;102058.75;5038167;28;20038;-71
2021/03/21 09:41:12;;;;;;;32.20;5.07;;;;;;;5.79;42.64;102062.25;5039685;28;20523;-70
2021/03/21 09:43:40;;;;;;;36.70;3.38;;;;;;;6.41;41.59;102054.31;5040457;28;20135;-70
2021/03/21 09:46:05;;;;;;;36.42;3.97;;;;;;;6.07;42.57;102060.44;5041124;28;20174;-70
2021/03/21 09:48:44;;;;;;;35.92;3.17;;;;;;;6.01;42.94;102063.03;5022863;28;20140;-71
2021/03/21 09:51:16;;;;;;;37.40;4.32;;;;;;;6.06;42.59;102060.44;5054946;28;20400;-71
2021/03/21 09:54:07;;;;;;;20.95;3.00;;;;;;;5.88;42.20;102061.34;5040800;28;20527;-70
2021/03/21 09:56:41;;;;;;;28.05;3.33;;;;;;;5.83;42.09;102057.91;5038699;28;20021;-70
2021/03/21 09:59:44;;;;;;;37.22;5.30;;;;;;;6.40;41.92;102061.25;5041679;28;20041;-70
2021/03/21 10:02:26;;;;;;;27.77;4.28;;;;;;;6.25;40.93;102069.06;5040525;28;20036;-71
2021/03/21 10:05:20;;;;;;;31.15;5.45;;;;;;;6.43;41.27;102065.56;5042268;28;20044;-70
2021/03/21 10:08:08;;;;;;;21.92;3.33;;;;;;;6.47;41.56;102044.78;5020257;28;20489;-70
2021/03/21 10:10:57;;;;;;;33.33;4.50;;;;;;;6.49;41.16;102062.97;5039937;28;20142;-70
2021/03/21 10:13:34;;;;;;;15.50;4.28;;;;;;;6.00;41.99;102066.53;5036220;28;20048;-70
2021/03/21 10:16:15;;;;;;;24.23;3.63;;;;;;;6.29;41.96;102079.47;5040428;28;20634;-70
2021/03/21 10:18:48;;;;;;;22.58;4.78;;;;;;;6.36;41.33;102079.44;5038245;28;20033;-71
2021/03/21 10:21:35;;;;;;;38.00;3.45;;;;;;;5.97;42.21;102082.09;5040976;28;20102;-70
2021/03/21 10:24:04;;;;;;;29.38;3.92;;;;;;;5.99;42.55;102092.47;5037862;28;20030;-70
2021/03/21 10:26:32;;;;;;;34.58;4.82;;;;;;;5.98;42.75;102101.13;5041735;28;20040;-70
2021/03/21 10:29:09;;;;;;;32.83;4.40;;;;;;;6.46;41.29;102091.53;5037167;28;20815;-70
2021/03/21 10:31:37;;;;;;;29.23;3.70;;;;;;;6.75;40.25;102083.59;5041156;28;20033;-70
2021/03/21 10:34:02;;;;;;;25.60;3.47;;;;;;;6.55;41.01;102085.44;5023084;28;20037;-70
2021/03/21 10:36:40;;;;;;;23.48;4.38;;;;;;;5.95;41.71;102082.94;5039514;28;20503;-70
2021/03/21 10:39:11;;;;;;;32.65;4.47;;;;;;;5.52;43.04;102095.94;5039098;28;20102;-70
2021/03/21 10:41:58;;;;;;;42.92;5.63;;;;;;;5.85;42.50;102089.88;5037189;28;20097;-70
2021/03/21 10:44:30;;;;;;;28.33;3.10;;;;;;;5.89;42.75;102096.81;5035372;28;20021;-70
2021/03/21 10:46:57;;;;;;;35.25;4.90;;;;;;;6.32;42.18;102088.13;5032605;28;20026;-71
2021/03/21 10:49:46;;;;;;;23.63;3.67;;;;;;;6.77;40.72;102107.84;5036046;28;20033;-70
2021/03/21 10:52:23;;;;;;;25.98;3.60;;;;;;;5.97;41.73;102097.69;5036174;28;20041;-71
2021/03/21 10:55:12;;;;;;;40.00;3.83;;;;;;;6.23;41.68;102099.34;5038753;28;20028;-71
2021/03/21 10:57:41;;;;;;;20.75;4.25;;;;;;;6.56;41.60;102110.56;5027951;28;20045;-71
2021/03/21 11:00:12;;;;;;;22.75;3.38;;;;;;;7.04;40.55;102101.69;5033501;28;20029;-71
2021/03/21 11:02:39;;;;;;;28.23;3.22;;;;;;;6.38;40.16;102103.69;5036609;28;20039;-71
2021/03/21 11:05:18;;;;;;;32.03;3.28;;;;;;;6.63;40.04;102092.34;5037686;28;20041;-70
2021/03/21 11:07:43;;;;;;;29.80;3.35;;;;;;;6.46;40.32;102102.81;5038275;28;20036;-70
2021/03/21 11:10:12;;;;;;;26.45;3.53;;;;;;;6.74;39.86;102092.28;5020518;28;20278;-70
2021/03/21 11:12:41;;;;;;;28.42;4.28;;;;;;;6.26;40.43;102091.53;5033489;28;20054;-70
2021/03/21 11:15:26;;;;;;;20.85;3.50;;;;;;;7.19;38.86;102087.72;5040361;28;20033;-70
2021/03/21 11:17:52;;;;;;;19.42;2.67;;;;;;;6.14;40.77;102081.22;5038433;28;20037;-71
2021/03/21 11:20:28;;;;;;;17.27;2.78;;;;;;;6.10;40.75;102088.13;5039176;28;20041;-75
2021/03/21 11:22:56;;;;;;;27.52;4.10;;;;;;;6.76;39.51;102079.31;5044360;28;20547;-70
2021/03/21 11:25:35;;;;;;;25.70;3.30;;;;;;;6.74;39.83;102087.09;5057542;28;20037;-70
2021/03/21 11:28:00;;;;;;;32.15;4.10;;;;;;;7.27;38.64;102088.53;5047011;28;20032;-70
2021/03/21 11:30:28;;;;;;;22.75;2.67;;;;;;;7.54;38.89;102076.19;5044202;28;20033;-70
2021/03/21 11:33:16;;;;;;;22.05;2.70;;;;;;;7.70;38.49;102082.16;5042789;28;20032;-72
2021/03/21 11:35:42;;;;;;;18.20;2.10;;;;;;;7.25;37.93;102076.41;5040999;28;20043;-70
2021/03/21 11:38:29;;;;;;;26.65;3.20;;;;;;;7.41;37.77;102077.16;5044816;28;20037;-72
2021/03/21 11:40:59;;;;;;;18.60;2.70;;;;;;;7.57;37.98;102068.38;5043724;28;20373;-70
2021/03/21 11:43:28;;;;;;;24.60;2.97;;;;;;;7.08;39.12;102071.31;5023514;28;20039;-71
2021/03/21 11:46:09;;;;;;;28.10;3.70;;;;;;;7.38;39.09;102079.78;5039674;28;20112;-70
2021/03/21 11:48:36;;;;;;;21.90;3.00;;;;;;;7.35;38.78;102069.41;5044039;28;20067;-72
2021/03/21 11:51:03;;;;;;;15.23;3.33;;;;;;;6.96;38.79;102080.06;5041097;28;20507;-72
2021/03/21 11:53:35;;;;;;;24.63;3.03;;;;;;;7.18;38.84;102074.75;5025483;28;20029;-70
2021/03/21 11:56:21;;;;;;;33.45;4.32;;;;;;;7.48;38.11;102065.84;5027982;28;20086;-70
2021/03/21 11:59:00;;;;;;;22.30;3.33;;;;;;;7.06;38.96;102070.47;5040664;28;20742;-72
2021/03/21 12:01:39;;;;;;;23.52;3.45;;;;;;;6.72;39.80;102087.97;5037278;28;20108;-70
2021/03/21 12:04:08;;;;;;;20.50;2.47;;;;;;;6.85;39.39;102071.47;5041419;28;20045;-72
2021/03/21 12:06:58;;;;;;;17.13;2.42;;;;;;;7.18;38.92;102067.78;5053621;28;20121;-71
2021/03/21 12:09:31;;;;;;;17.00;2.53;;;;;;;7.04;38.67;102069.59;5041264;28;20037;-72
2021/03/21 12:12:03;;;;;;;22.17;3.05;;;;;;;7.44;38.20;102070.19;5037201;28;20555;-70
2021/03/21 12:14:32;;;;;;;24.05;2.50;;;;;;;7.59;38.42;102071.00;5033807;28;20035;-70